Terminal Aerodrome Forecast
Issued by NWS

Home | Current Version | Previous Version | Text Only | Print | Product List | Glossary On
Versions: 1 2 3 4 5 6 7 8 9 10 11 12 13 14 15 16
000
FTUS43 KDVN 202320
TAFCID
TAF
KCID 202320Z 2100/2124 02004KT P6SM SCT100 SCT250
     FM210100 06008KT P6SM BKN120
      TEMPO 2104/2108 4SM TSRA BKN040CB
     FM210900 12004KT 4SM BR VCSH BKN060
     FM211500 15007KT 6SM HZ BKN080=

USA.gov is the U.S. government's official web portal to all federal, state and local government web resources and services.